sensor_id;sensor_type;location;lat;lon;timestamp;P1;durP1;ratioP1;P2;durP2;ratioP2
25073;SDS011;13066;52.042;5.648;2022-08-06T00:02:34;7.25;;;1.90;;
25073;SDS011;13066;52.042;5.648;2022-08-06T00:05:03;6.75;;;1.45;;
25073;SDS011;13066;52.042;5.648;2022-08-06T00:07:33;8.85;;;1.88;;
25073;SDS011;13066;52.042;5.648;2022-08-06T00:10:13;7.13;;;1.83;;
25073;SDS011;13066;52.042;5.648;2022-08-06T00:12:43;5.60;;;1.30;;
25073;SDS011;13066;52.042;5.648;2022-08-06T00:15:15;7.40;;;1.55;;
25073;SDS011;13066;52.042;5.648;2022-08-06T00:18:05;8.70;;;1.70;;
25073;SDS011;13066;52.042;5.648;2022-08-06T00:20:33;8.02;;;1.83;;
25073;SDS011;13066;52.042;5.648;2022-08-06T00:23:07;4.38;;;1.67;;
25073;SDS011;13066;52.042;5.648;2022-08-06T00:25:42;4.82;;;1.55;;
25073;SDS011;13066;52.042;5.648;2022-08-06T00:28:18;4.07;;;1.50;;
25073;SDS011;13066;52.042;5.648;2022-08-06T00:30:58;6.18;;;1.52;;
25073;SDS011;13066;52.042;5.648;2022-08-06T00:33:36;5.82;;;1.45;;
25073;SDS011;13066;52.042;5.648;2022-08-06T00:36:21;5.60;;;1.63;;
25073;SDS011;13066;52.042;5.648;2022-08-06T00:38:54;5.78;;;1.70;;
25073;SDS011;13066;52.042;5.648;2022-08-06T00:41:25;6.18;;;1.80;;
25073;SDS011;13066;52.042;5.648;2022-08-06T00:44:08;11.07;;;1.45;;
25073;SDS011;13066;52.042;5.648;2022-08-06T00:46:39;4.95;;;1.70;;
25073;SDS011;13066;52.042;5.648;2022-08-06T00:49:07;6.65;;;1.67;;
25073;SDS011;13066;52.042;5.648;2022-08-06T00:51:37;5.50;;;1.40;;
25073;SDS011;13066;52.042;5.648;2022-08-06T00:54:17;7.40;;;1.48;;
25073;SDS011;13066;52.042;5.648;2022-08-06T00:57:01;7.15;;;1.60;;
25073;SDS011;13066;52.042;5.648;2022-08-06T00:59:35;5.50;;;1.40;;
25073;SDS011;13066;52.042;5.648;2022-08-06T01:02:05;5.07;;;1.52;;
25073;SDS011;13066;52.042;5.648;2022-08-06T01:04:35;5.55;;;2.05;;
25073;SDS011;13066;52.042;5.648;2022-08-06T01:07:03;6.82;;;1.30;;
25073;SDS011;13066;52.042;5.648;2022-08-06T01:09:35;9.48;;;1.60;;
25073;SDS011;13066;52.042;5.648;2022-08-06T01:12:23;9.57;;;1.60;;
25073;SDS011;13066;52.042;5.648;2022-08-06T01:15:00;7.35;;;2.13;;
25073;SDS011;13066;52.042;5.648;2022-08-06T01:17:33;10.20;;;1.60;;
25073;SDS011;13066;52.042;5.648;2022-08-06T01:20:08;5.85;;;1.63;;
25073;SDS011;13066;52.042;5.648;2022-08-06T01:23:17;11.15;;;1.65;;
25073;SDS011;13066;52.042;5.648;2022-08-06T01:26:07;5.72;;;1.48;;
25073;SDS011;13066;52.042;5.648;2022-08-06T01:31:28;4.60;;;1.30;;
25073;SDS011;13066;52.042;5.648;2022-08-06T01:34:05;3.20;;;1.13;;
25073;SDS011;13066;52.042;5.648;2022-08-06T01:36:39;7.18;;;1.83;;
25073;SDS011;13066;52.042;5.648;2022-08-06T01:39:14;7.20;;;1.58;;
25073;SDS011;13066;52.042;5.648;2022-08-06T01:41:49;5.28;;;1.60;;
25073;SDS011;13066;52.042;5.648;2022-08-06T01:44:30;9.02;;;1.75;;
25073;SDS011;13066;52.042;5.648;2022-08-06T01:47:03;4.45;;;1.77;;
25073;SDS011;13066;52.042;5.648;2022-08-06T01:49:43;4.18;;;1.73;;
25073;SDS011;13066;52.042;5.648;2022-08-06T01:52:29;2.38;;;1.52;;
25073;SDS011;13066;52.042;5.648;2022-08-06T01:55:03;3.10;;;1.17;;
25073;SDS011;13066;52.042;5.648;2022-08-06T01:57:40;4.07;;;1.67;;
25073;SDS011;13066;52.042;5.648;2022-08-06T02:00:32;6.22;;;1.80;;
25073;SDS011;13066;52.042;5.648;2022-08-06T02:03:13;8.05;;;1.60;;
25073;SDS011;13066;52.042;5.648;2022-08-06T02:05:48;8.55;;;1.80;;
25073;SDS011;13066;52.042;5.648;2022-08-06T02:08:19;8.05;;;1.70;;
25073;SDS011;13066;52.042;5.648;2022-08-06T02:11:05;4.78;;;1.40;;
25073;SDS011;13066;52.042;5.648;2022-08-06T02:13:55;6.20;;;1.73;;
25073;SDS011;13066;52.042;5.648;2022-08-06T02:16:30;6.18;;;1.63;;
25073;SDS011;13066;52.042;5.648;2022-08-06T02:19:07;5.47;;;1.88;;
25073;SDS011;13066;52.042;5.648;2022-08-06T02:21:40;5.47;;;1.43;;
25073;SDS011;13066;52.042;5.648;2022-08-06T02:24:18;6.10;;;1.90;;
25073;SDS011;13066;52.042;5.648;2022-08-06T02:26:51;4.60;;;1.50;;
25073;SDS011;13066;52.042;5.648;2022-08-06T02:29:21;7.75;;;1.92;;
25073;SDS011;13066;52.042;5.648;2022-08-06T02:31:52;6.88;;;1.70;;
25073;SDS011;13066;52.042;5.648;2022-08-06T02:34:27;6.43;;;1.70;;
25073;SDS011;13066;52.042;5.648;2022-08-06T02:36:57;10.15;;;1.77;;
25073;SDS011;13066;52.042;5.648;2022-08-06T02:39:35;4.45;;;1.73;;
25073;SDS011;13066;52.042;5.648;2022-08-06T02:42:20;6.70;;;1.58;;
25073;SDS011;13066;52.042;5.648;2022-08-06T02:44:57;6.85;;;1.85;;
25073;SDS011;13066;52.042;5.648;2022-08-06T02:47:31;7.75;;;2.20;;
25073;SDS011;13066;52.042;5.648;2022-08-06T02:50:24;5.63;;;1.65;;
25073;SDS011;13066;52.042;5.648;2022-08-06T02:53:02;10.73;;;1.83;;
25073;SDS011;13066;52.042;5.648;2022-08-06T02:55:51;6.63;;;2.05;;
25073;SDS011;13066;52.042;5.648;2022-08-06T02:58:26;9.10;;;2.17;;
25073;SDS011;13066;52.042;5.648;2022-08-06T03:01:05;4.18;;;1.80;;
25073;SDS011;13066;52.042;5.648;2022-08-06T03:03:38;5.15;;;2.00;;
25073;SDS011;13066;52.042;5.648;2022-08-06T03:06:24;6.82;;;2.00;;
25073;SDS011;13066;52.042;5.648;2022-08-06T03:08:56;7.20;;;2.20;;
25073;SDS011;13066;52.042;5.648;2022-08-06T03:11:25;4.38;;;1.83;;
25073;SDS011;13066;52.042;5.648;2022-08-06T03:13:57;5.95;;;1.92;;
25073;SDS011;13066;52.042;5.648;2022-08-06T03:16:47;6.75;;;2.20;;
25073;SDS011;13066;52.042;5.648;2022-08-06T03:19:18;4.07;;;2.00;;
25073;SDS011;13066;52.042;5.648;2022-08-06T03:22:08;5.53;;;2.08;;
25073;SDS011;13066;52.042;5.648;2022-08-06T03:24:58;6.85;;;2.00;;
25073;SDS011;13066;52.042;5.648;2022-08-06T03:27:29;5.50;;;1.80;;
25073;SDS011;13066;52.042;5.648;2022-08-06T03:30:10;8.23;;;2.25;;
25073;SDS011;13066;52.042;5.648;2022-08-06T03:32:58;4.13;;;1.50;;
25073;SDS011;13066;52.042;5.648;2022-08-06T03:35:50;5.60;;;1.90;;
25073;SDS011;13066;52.042;5.648;2022-08-06T03:38:20;4.72;;;1.98;;
25073;SDS011;13066;52.042;5.648;2022-08-06T03:40:54;4.70;;;1.67;;
25073;SDS011;13066;52.042;5.648;2022-08-06T03:43:26;7.00;;;2.15;;
25073;SDS011;13066;52.042;5.648;2022-08-06T03:46:15;3.22;;;1.40;;
25073;SDS011;13066;52.042;5.648;2022-08-06T03:48:47;3.75;;;1.90;;
25073;SDS011;13066;52.042;5.648;2022-08-06T03:51:20;5.30;;;2.13;;
25073;SDS011;13066;52.042;5.648;2022-08-06T03:54:09;5.57;;;2.10;;
25073;SDS011;13066;52.042;5.648;2022-08-06T03:56:53;5.25;;;2.15;;
25073;SDS011;13066;52.042;5.648;2022-08-06T03:59:24;6.70;;;2.10;;
25073;SDS011;13066;52.042;5.648;2022-08-06T04:02:03;5.57;;;1.92;;
25073;SDS011;13066;52.042;5.648;2022-08-06T04:04:50;6.30;;;2.08;;
25073;SDS011;13066;52.042;5.648;2022-08-06T04:07:19;3.40;;;1.80;;
25073;SDS011;13066;52.042;5.648;2022-08-06T04:10:08;4.43;;;1.70;;
25073;SDS011;13066;52.042;5.648;2022-08-06T04:12:37;4.25;;;2.50;;
25073;SDS011;13066;52.042;5.648;2022-08-06T04:15:26;6.30;;;2.00;;
25073;SDS011;13066;52.042;5.648;2022-08-06T04:17:54;3.10;;;2.00;;
25073;SDS011;13066;52.042;5.648;2022-08-06T04:20:23;7.57;;;2.30;;
25073;SDS011;13066;52.042;5.648;2022-08-06T04:23:10;8.88;;;1.80;;
25073;SDS011;13066;52.042;5.648;2022-08-06T04:25:40;5.22;;;2.05;;
25073;SDS011;13066;52.042;5.648;2022-08-06T04:28:14;11.95;;;2.42;;
25073;SDS011;13066;52.042;5.648;2022-08-06T04:30:45;11.40;;;2.15;;
25073;SDS011;13066;52.042;5.648;2022-08-06T04:33:17;6.50;;;1.90;;
25073;SDS011;13066;52.042;5.648;2022-08-06T04:36:00;7.78;;;1.90;;
25073;SDS011;13066;52.042;5.648;2022-08-06T04:38:52;6.82;;;2.45;;
25073;SDS011;13066;52.042;5.648;2022-08-06T04:41:23;7.90;;;2.17;;
25073;SDS011;13066;52.042;5.648;2022-08-06T04:43:56;4.70;;;2.17;;
25073;SDS011;13066;52.042;5.648;2022-08-06T04:46:27;7.18;;;2.20;;
25073;SDS011;13066;52.042;5.648;2022-08-06T04:48:56;10.43;;;2.40;;
25073;SDS011;13066;52.042;5.648;2022-08-06T04:51:26;5.15;;;1.75;;
25073;SDS011;13066;52.042;5.648;2022-08-06T04:54:16;6.75;;;2.20;;
25073;SDS011;13066;52.042;5.648;2022-08-06T04:56:53;4.43;;;1.90;;
25073;SDS011;13066;52.042;5.648;2022-08-06T04:59:23;7.10;;;2.30;;
25073;SDS011;13066;52.042;5.648;2022-08-06T05:02:12;7.45;;;2.03;;
25073;SDS011;13066;52.042;5.648;2022-08-06T05:04:40;6.82;;;2.25;;
25073;SDS011;13066;52.042;5.648;2022-08-06T05:07:12;6.93;;;2.15;;
25073;SDS011;13066;52.042;5.648;2022-08-06T05:09:47;10.13;;;2.17;;
25073;SDS011;13066;52.042;5.648;2022-08-06T05:12:23;6.85;;;2.10;;
25073;SDS011;13066;52.042;5.648;2022-08-06T05:14:54;7.25;;;2.30;;
25073;SDS011;13066;52.042;5.648;2022-08-06T05:17:29;6.68;;;2.13;;
25073;SDS011;13066;52.042;5.648;2022-08-06T05:22:38;3.60;;;1.85;;
25073;SDS011;13066;52.042;5.648;2022-08-06T05:25:27;5.57;;;1.80;;
25073;SDS011;13066;52.042;5.648;2022-08-06T05:28:01;8.38;;;1.70;;
25073;SDS011;13066;52.042;5.648;2022-08-06T05:30:43;16.20;;;2.30;;
25073;SDS011;13066;52.042;5.648;2022-08-06T05:33:21;5.53;;;2.08;;
25073;SDS011;13066;52.042;5.648;2022-08-06T05:35:54;6.68;;;1.75;;
25073;SDS011;13066;52.042;5.648;2022-08-06T05:38:28;6.28;;;2.00;;
25073;SDS011;13066;52.042;5.648;2022-08-06T05:43:34;13.80;;;2.08;;
25073;SDS011;13066;52.042;5.648;2022-08-06T05:46:23;8.25;;;2.03;;
25073;SDS011;13066;52.042;5.648;2022-08-06T05:48:57;11.93;;;2.00;;
25073;SDS011;13066;52.042;5.648;2022-08-06T05:51:50;3.38;;;1.80;;
25073;SDS011;13066;52.042;5.648;2022-08-06T05:54:27;6.53;;;2.50;;
25073;SDS011;13066;52.042;5.648;2022-08-06T05:57:02;4.20;;;1.90;;
25073;SDS011;13066;52.042;5.648;2022-08-06T05:59:35;5.32;;;1.67;;
25073;SDS011;13066;52.042;5.648;2022-08-06T06:02:25;10.80;;;2.00;;
25073;SDS011;13066;52.042;5.648;2022-08-06T06:04:57;9.18;;;2.03;;
25073;SDS011;13066;52.042;5.648;2022-08-06T06:07:46;3.30;;;1.15;;
25073;SDS011;13066;52.042;5.648;2022-08-06T06:10:35;8.35;;;1.85;;
25073;SDS011;13066;52.042;5.648;2022-08-06T06:13:20;7.72;;;1.58;;
25073;SDS011;13066;52.042;5.648;2022-08-06T06:16:12;5.75;;;1.40;;
25073;SDS011;13066;52.042;5.648;2022-08-06T06:18:58;5.25;;;1.55;;
25073;SDS011;13066;52.042;5.648;2022-08-06T06:21:52;10.35;;;1.52;;
25073;SDS011;13066;52.042;5.648;2022-08-06T06:24:29;5.63;;;1.80;;
25073;SDS011;13066;52.042;5.648;2022-08-06T06:27:01;4.57;;;1.60;;
25073;SDS011;13066;52.042;5.648;2022-08-06T06:29:57;4.68;;;1.52;;
25073;SDS011;13066;52.042;5.648;2022-08-06T06:32:38;4.43;;;1.55;;
25073;SDS011;13066;52.042;5.648;2022-08-06T06:35:17;6.25;;;1.80;;
25073;SDS011;13066;52.042;5.648;2022-08-06T06:38:04;6.50;;;1.83;;
25073;SDS011;13066;52.042;5.648;2022-08-06T06:40:43;4.63;;;1.60;;
25073;SDS011;13066;52.042;5.648;2022-08-06T06:43:40;4.05;;;1.60;;
25073;SDS011;13066;52.042;5.648;2022-08-06T06:46:21;7.13;;;1.98;;
25073;SDS011;13066;52.042;5.648;2022-08-06T06:49:06;7.53;;;1.35;;
25073;SDS011;13066;52.042;5.648;2022-08-06T06:51:59;5.38;;;1.50;;
25073;SDS011;13066;52.042;5.648;2022-08-06T06:54:37;4.75;;;1.65;;
25073;SDS011;13066;52.042;5.648;2022-08-06T06:57:11;6.13;;;1.50;;
25073;SDS011;13066;52.042;5.648;2022-08-06T06:59:49;8.45;;;1.35;;
25073;SDS011;13066;52.042;5.648;2022-08-06T07:02:41;5.07;;;1.45;;
25073;SDS011;13066;52.042;5.648;2022-08-06T07:05:15;3.75;;;1.60;;
25073;SDS011;13066;52.042;5.648;2022-08-06T07:08:04;5.53;;;1.63;;
25073;SDS011;13066;52.042;5.648;2022-08-06T07:10:36;9.25;;;1.98;;
25073;SDS011;13066;52.042;5.648;2022-08-06T07:13:06;7.10;;;1.85;;
25073;SDS011;13066;52.042;5.648;2022-08-06T07:15:41;6.53;;;2.08;;
25073;SDS011;13066;52.042;5.648;2022-08-06T07:18:20;4.50;;;2.40;;
25073;SDS011;13066;52.042;5.648;2022-08-06T07:20:59;2.67;;;1.52;;
25073;SDS011;13066;52.042;5.648;2022-08-06T07:23:30;10.35;;;2.10;;
25073;SDS011;13066;52.042;5.648;2022-08-06T07:26:19;7.85;;;1.98;;
25073;SDS011;13066;52.042;5.648;2022-08-06T07:28:51;4.65;;;1.70;;
25073;SDS011;13066;52.042;5.648;2022-08-06T07:31:29;3.78;;;1.50;;
25073;SDS011;13066;52.042;5.648;2022-08-06T07:34:03;4.82;;;1.50;;
25073;SDS011;13066;52.042;5.648;2022-08-06T07:36:36;10.00;;;1.80;;
25073;SDS011;13066;52.042;5.648;2022-08-06T07:39:07;5.90;;;1.75;;
25073;SDS011;13066;52.042;5.648;2022-08-06T07:41:41;2.63;;;1.38;;
25073;SDS011;13066;52.042;5.648;2022-08-06T07:44:31;9.15;;;1.35;;
25073;SDS011;13066;52.042;5.648;2022-08-06T07:47:24;8.68;;;1.20;;
25073;SDS011;13066;52.042;5.648;2022-08-06T07:50:16;2.97;;;0.85;;
25073;SDS011;13066;52.042;5.648;2022-08-06T07:52:49;4.55;;;0.98;;
25073;SDS011;13066;52.042;5.648;2022-08-06T07:55:20;2.78;;;0.90;;
25073;SDS011;13066;52.042;5.648;2022-08-06T07:57:57;6.25;;;1.00;;
25073;SDS011;13066;52.042;5.648;2022-08-06T08:00:29;3.70;;;1.13;;
25073;SDS011;13066;52.042;5.648;2022-08-06T08:03:03;2.53;;;1.52;;
25073;SDS011;13066;52.042;5.648;2022-08-06T08:06:11;5.32;;;1.10;;
25073;SDS011;13066;52.042;5.648;2022-08-06T08:08:48;5.78;;;1.00;;
25073;SDS011;13066;52.042;5.648;2022-08-06T08:11:22;4.35;;;1.05;;
25073;SDS011;13066;52.042;5.648;2022-08-06T08:14:14;3.97;;;1.10;;
25073;SDS011;13066;52.042;5.648;2022-08-06T08:16:47;4.68;;;0.88;;
25073;SDS011;13066;52.042;5.648;2022-08-06T08:19:22;6.38;;;0.80;;
25073;SDS011;13066;52.042;5.648;2022-08-06T08:22:03;2.90;;;0.70;;
25073;SDS011;13066;52.042;5.648;2022-08-06T08:24:35;1.85;;;0.52;;
25073;SDS011;13066;52.042;5.648;2022-08-06T08:27:05;1.67;;;0.77;;
25073;SDS011;13066;52.042;5.648;2022-08-06T08:29:48;2.10;;;0.90;;
25073;SDS011;13066;52.042;5.648;2022-08-06T08:32:22;3.10;;;1.02;;
25073;SDS011;13066;52.042;5.648;2022-08-06T08:34:52;2.30;;;0.85;;
25073;SDS011;13066;52.042;5.648;2022-08-06T08:37:24;5.55;;;0.88;;
25073;SDS011;13066;52.042;5.648;2022-08-06T08:39:57;11.43;;;1.30;;
25073;SDS011;13066;52.042;5.648;2022-08-06T08:42:28;2.08;;;0.65;;
25073;SDS011;13066;52.042;5.648;2022-08-06T08:45:02;2.85;;;0.90;;
25073;SDS011;13066;52.042;5.648;2022-08-06T08:47:34;3.40;;;0.95;;
25073;SDS011;13066;52.042;5.648;2022-08-06T08:50:28;6.20;;;0.80;;
25073;SDS011;13066;52.042;5.648;2022-08-06T08:53:00;3.55;;;0.57;;
25073;SDS011;13066;52.042;5.648;2022-08-06T08:55:31;2.80;;;1.17;;
25073;SDS011;13066;52.042;5.648;2022-08-06T08:58:19;3.28;;;0.65;;
25073;SDS011;13066;52.042;5.648;2022-08-06T09:01:08;4.70;;;1.38;;
25073;SDS011;13066;52.042;5.648;2022-08-06T09:03:57;1.23;;;0.77;;
25073;SDS011;13066;52.042;5.648;2022-08-06T09:06:27;2.78;;;0.73;;
25073;SDS011;13066;52.042;5.648;2022-08-06T09:09:04;6.63;;;1.30;;
25073;SDS011;13066;52.042;5.648;2022-08-06T09:11:41;5.82;;;1.10;;
25073;SDS011;13066;52.042;5.648;2022-08-06T09:14:29;5.25;;;1.20;;
25073;SDS011;13066;52.042;5.648;2022-08-06T09:16:59;3.50;;;1.10;;
25073;SDS011;13066;52.042;5.648;2022-08-06T09:19:28;5.43;;;1.08;;
25073;SDS011;13066;52.042;5.648;2022-08-06T09:22:04;7.53;;;0.95;;
25073;SDS011;13066;52.042;5.648;2022-08-06T09:24:36;4.65;;;1.05;;
25073;SDS011;13066;52.042;5.648;2022-08-06T09:27:05;3.50;;;1.25;;
25073;SDS011;13066;52.042;5.648;2022-08-06T09:29:56;7.13;;;0.95;;
25073;SDS011;13066;52.042;5.648;2022-08-06T09:32:46;2.47;;;0.80;;
25073;SDS011;13066;52.042;5.648;2022-08-06T09:35:22;2.63;;;0.70;;
25073;SDS011;13066;52.042;5.648;2022-08-06T09:38:11;4.57;;;0.93;;
25073;SDS011;13066;52.042;5.648;2022-08-06T09:40:46;3.17;;;1.08;;
25073;SDS011;13066;52.042;5.648;2022-08-06T09:43:32;2.08;;;0.80;;
25073;SDS011;13066;52.042;5.648;2022-08-06T09:46:34;3.22;;;0.73;;
25073;SDS011;13066;52.042;5.648;2022-08-06T09:49:03;3.55;;;0.85;;
25073;SDS011;13066;52.042;5.648;2022-08-06T09:52:09;1.73;;;0.77;;
25073;SDS011;13066;52.042;5.648;2022-08-06T09:54:39;1.52;;;0.93;;
25073;SDS011;13066;52.042;5.648;2022-08-06T09:57:09;3.13;;;0.90;;
25073;SDS011;13066;52.042;5.648;2022-08-06T09:59:41;3.28;;;0.85;;
25073;SDS011;13066;52.042;5.648;2022-08-06T10:02:16;12.10;;;1.00;;
25073;SDS011;13066;52.042;5.648;2022-08-06T10:05:05;8.15;;;0.75;;
25073;SDS011;13066;52.042;5.648;2022-08-06T10:07:45;0.80;;;0.60;;
25073;SDS011;13066;52.042;5.648;2022-08-06T10:10:19;1.50;;;0.82;;
25073;SDS011;13066;52.042;5.648;2022-08-06T10:13:12;2.08;;;0.47;;
25073;SDS011;13066;52.042;5.648;2022-08-06T10:15:45;3.28;;;1.17;;
25073;SDS011;13066;52.042;5.648;2022-08-06T10:18:31;3.03;;;0.77;;
25073;SDS011;13066;52.042;5.648;2022-08-06T10:21:21;3.47;;;0.80;;
25073;SDS011;13066;52.042;5.648;2022-08-06T10:24:07;5.15;;;0.98;;
25073;SDS011;13066;52.042;5.648;2022-08-06T10:26:36;1.05;;;0.60;;
25073;SDS011;13066;52.042;5.648;2022-08-06T10:29:11;5.03;;;0.65;;
25073;SDS011;13066;52.042;5.648;2022-08-06T10:31:40;1.40;;;0.70;;
25073;SDS011;13066;52.042;5.648;2022-08-06T10:34:13;3.03;;;0.77;;
25073;SDS011;13066;52.042;5.648;2022-08-06T10:36:57;2.10;;;0.70;;
25073;SDS011;13066;52.042;5.648;2022-08-06T10:39:36;2.92;;;0.73;;
25073;SDS011;13066;52.042;5.648;2022-08-06T10:42:29;1.95;;;0.93;;
25073;SDS011;13066;52.042;5.648;2022-08-06T10:45:00;6.03;;;0.70;;
25073;SDS011;13066;52.042;5.648;2022-08-06T10:47:39;7.50;;;0.80;;
25073;SDS011;13066;52.042;5.648;2022-08-06T10:50:27;5.15;;;0.88;;
25073;SDS011;13066;52.042;5.648;2022-08-06T10:53:10;1.25;;;0.60;;
25073;SDS011;13066;52.042;5.648;2022-08-06T10:55:59;0.68;;;0.50;;
25073;SDS011;13066;52.042;5.648;2022-08-06T10:58:30;9.80;;;0.68;;
25073;SDS011;13066;52.042;5.648;2022-08-06T11:01:03;5.20;;;0.80;;
25073;SDS011;13066;52.042;5.648;2022-08-06T11:03:38;0.93;;;0.52;;
25073;SDS011;13066;52.042;5.648;2022-08-06T11:09:26;1.92;;;0.90;;
25073;SDS011;13066;52.042;5.648;2022-08-06T11:12:41;4.25;;;0.80;;
25073;SDS011;13066;52.042;5.648;2022-08-06T11:15:16;2.20;;;0.77;;
25073;SDS011;13066;52.042;5.648;2022-08-06T11:17:50;3.55;;;0.70;;
25073;SDS011;13066;52.042;5.648;2022-08-06T11:20:40;1.92;;;0.80;;
25073;SDS011;13066;52.042;5.648;2022-08-06T11:23:23;3.85;;;0.82;;
25073;SDS011;13066;52.042;5.648;2022-08-06T11:26:13;0.98;;;0.60;;
25073;SDS011;13066;52.042;5.648;2022-08-06T11:29:04;0.77;;;0.40;;
25073;SDS011;13066;52.042;5.648;2022-08-06T11:31:38;2.80;;;0.73;;
25073;SDS011;13066;52.042;5.648;2022-08-06T11:40:43;1.77;;;0.50;;
25073;SDS011;13066;52.042;5.648;2022-08-06T11:46:33;0.70;;;0.45;;
25073;SDS011;13066;52.042;5.648;2022-08-06T11:49:12;0.55;;;0.55;;
25073;SDS011;13066;52.042;5.648;2022-08-06T11:51:53;2.20;;;0.63;;
25073;SDS011;13066;52.042;5.648;2022-08-06T11:54:32;0.50;;;0.50;;
25073;SDS011;13066;52.042;5.648;2022-08-06T11:57:17;2.67;;;0.60;;
25073;SDS011;13066;52.042;5.648;2022-08-06T12:00:09;1.63;;;0.60;;
25073;SDS011;13066;52.042;5.648;2022-08-06T12:02:55;2.90;;;0.50;;
25073;SDS011;13066;52.042;5.648;2022-08-06T12:05:34;6.53;;;0.82;;
25073;SDS011;13066;52.042;5.648;2022-08-06T12:08:24;3.17;;;0.50;;
25073;SDS011;13066;52.042;5.648;2022-08-06T12:11:24;2.25;;;0.63;;
25073;SDS011;13066;52.042;5.648;2022-08-06T12:14:02;1.35;;;0.50;;
25073;SDS011;13066;52.042;5.648;2022-08-06T12:16:51;0.65;;;0.40;;
25073;SDS011;13066;52.042;5.648;2022-08-06T12:19:28;4.22;;;0.45;;
25073;SDS011;13066;52.042;5.648;2022-08-06T12:21:58;4.28;;;0.50;;
25073;SDS011;13066;52.042;5.648;2022-08-06T12:24:28;1.25;;;0.38;;
25073;SDS011;13066;52.042;5.648;2022-08-06T12:27:18;2.80;;;0.50;;
25073;SDS011;13066;52.042;5.648;2022-08-06T12:29:59;8.30;;;0.63;;
25073;SDS011;13066;52.042;5.648;2022-08-06T12:32:29;1.70;;;0.40;;
25073;SDS011;13066;52.042;5.648;2022-08-06T12:35:00;0.93;;;0.63;;
25073;SDS011;13066;52.042;5.648;2022-08-06T12:37:33;1.25;;;0.90;;
25073;SDS011;13066;52.042;5.648;2022-08-06T12:40:15;1.98;;;0.60;;
25073;SDS011;13066;52.042;5.648;2022-08-06T12:43:09;0.40;;;0.40;;
25073;SDS011;13066;52.042;5.648;2022-08-06T12:45:41;2.05;;;0.50;;
25073;SDS011;13066;52.042;5.648;2022-08-06T12:48:30;1.50;;;0.60;;
25073;SDS011;13066;52.042;5.648;2022-08-06T12:51:02;3.85;;;0.50;;
25073;SDS011;13066;52.042;5.648;2022-08-06T12:53:39;0.85;;;0.63;;
25073;SDS011;13066;52.042;5.648;2022-08-06T12:56:14;3.55;;;1.13;;
25073;SDS011;13066;52.042;5.648;2022-08-06T12:58:57;4.07;;;0.43;;
25073;SDS011;13066;52.042;5.648;2022-08-06T13:01:31;0.98;;;0.50;;
25073;SDS011;13066;52.042;5.648;2022-08-06T13:04:22;4.88;;;0.73;;
25073;SDS011;13066;52.042;5.648;2022-08-06T13:06:57;1.15;;;0.75;;
25073;SDS011;13066;52.042;5.648;2022-08-06T13:09:28;1.10;;;0.63;;
25073;SDS011;13066;52.042;5.648;2022-08-06T13:12:11;1.52;;;0.60;;
25073;SDS011;13066;52.042;5.648;2022-08-06T13:14:55;0.87;;;0.63;;
25073;SDS011;13066;52.042;5.648;2022-08-06T13:17:42;1.60;;;1.00;;
25073;SDS011;13066;52.042;5.648;2022-08-06T13:20:39;1.80;;;0.70;;
25073;SDS011;13066;52.042;5.648;2022-08-06T13:23:08;4.72;;;0.70;;
25073;SDS011;13066;52.042;5.648;2022-08-06T13:25:49;1.48;;;0.88;;
25073;SDS011;13066;52.042;5.648;2022-08-06T13:28:20;2.63;;;0.90;;
25073;SDS011;13066;52.042;5.648;2022-08-06T13:30:55;1.42;;;0.80;;
25073;SDS011;13066;52.042;5.648;2022-08-06T13:33:26;5.00;;;1.20;;
25073;SDS011;13066;52.042;5.648;2022-08-06T13:36:04;1.65;;;1.10;;
25073;SDS011;13066;52.042;5.648;2022-08-06T13:38:35;0.73;;;0.70;;
25073;SDS011;13066;52.042;5.648;2022-08-06T13:41:07;1.23;;;0.90;;
25073;SDS011;13066;52.042;5.648;2022-08-06T13:43:39;3.38;;;1.08;;
25073;SDS011;13066;52.042;5.648;2022-08-06T13:46:20;2.42;;;0.68;;
25073;SDS011;13066;52.042;5.648;2022-08-06T13:48:55;4.18;;;1.10;;
25073;SDS011;13066;52.042;5.648;2022-08-06T13:51:27;7.93;;;0.80;;
25073;SDS011;13066;52.042;5.648;2022-08-06T13:54:01;1.20;;;0.63;;
25073;SDS011;13066;52.042;5.648;2022-08-06T13:56:44;2.17;;;0.77;;
25073;SDS011;13066;52.042;5.648;2022-08-06T13:59:16;1.15;;;0.80;;
25073;SDS011;13066;52.042;5.648;2022-08-06T14:01:47;1.02;;;0.60;;
25073;SDS011;13066;52.042;5.648;2022-08-06T14:04:18;1.45;;;0.70;;
25073;SDS011;13066;52.042;5.648;2022-08-06T14:06:51;3.47;;;0.75;;
25073;SDS011;13066;52.042;5.648;2022-08-06T14:09:25;1.10;;;0.77;;
25073;SDS011;13066;52.042;5.648;2022-08-06T14:12:14;1.38;;;0.55;;
25073;SDS011;13066;52.042;5.648;2022-08-06T14:14:43;2.40;;;0.80;;
25073;SDS011;13066;52.042;5.648;2022-08-06T14:17:13;1.55;;;0.70;;
25073;SDS011;13066;52.042;5.648;2022-08-06T14:19:42;1.70;;;0.80;;
25073;SDS011;13066;52.042;5.648;2022-08-06T14:22:30;2.10;;;0.70;;
25073;SDS011;13066;52.042;5.648;2022-08-06T14:25:06;1.58;;;1.00;;
25073;SDS011;13066;52.042;5.648;2022-08-06T14:27:35;3.63;;;0.80;;
25073;SDS011;13066;52.042;5.648;2022-08-06T14:30:12;1.17;;;0.82;;
25073;SDS011;13066;52.042;5.648;2022-08-06T14:32:56;0.70;;;0.70;;
25073;SDS011;13066;52.042;5.648;2022-08-06T14:35:35;2.15;;;0.80;;
25073;SDS011;13066;52.042;5.648;2022-08-06T14:38:17;3.80;;;0.70;;
25073;SDS011;13066;52.042;5.648;2022-08-06T14:40:47;4.10;;;0.98;;
25073;SDS011;13066;52.042;5.648;2022-08-06T14:43:35;2.85;;;0.73;;
25073;SDS011;13066;52.042;5.648;2022-08-06T14:46:28;3.05;;;0.70;;
25073;SDS011;13066;52.042;5.648;2022-08-06T14:51:34;3.50;;;1.05;;
25073;SDS011;13066;52.042;5.648;2022-08-06T14:54:23;1.60;;;0.70;;
25073;SDS011;13066;52.042;5.648;2022-08-06T14:56:57;1.48;;;0.80;;
25073;SDS011;13066;52.042;5.648;2022-08-06T14:59:39;0.90;;;0.80;;
25073;SDS011;13066;52.042;5.648;2022-08-06T15:02:19;1.20;;;0.80;;
25073;SDS011;13066;52.042;5.648;2022-08-06T15:04:50;1.70;;;0.80;;
25073;SDS011;13066;52.042;5.648;2022-08-06T15:07:19;2.90;;;0.98;;
25073;SDS011;13066;52.042;5.648;2022-08-06T15:09:52;1.77;;;0.70;;
25073;SDS011;13066;52.042;5.648;2022-08-06T15:12:40;1.35;;;0.70;;
25073;SDS011;13066;52.042;5.648;2022-08-06T15:15:16;1.67;;;0.70;;
25073;SDS011;13066;52.042;5.648;2022-08-06T15:18:02;1.52;;;0.98;;
25073;SDS011;13066;52.042;5.648;2022-08-06T15:20:51;1.98;;;0.82;;
25073;SDS011;13066;52.042;5.648;2022-08-06T15:23:20;1.23;;;0.90;;
25073;SDS011;13066;52.042;5.648;2022-08-06T15:25:56;3.63;;;0.80;;
25073;SDS011;13066;52.042;5.648;2022-08-06T15:28:44;4.05;;;1.05;;
25073;SDS011;13066;52.042;5.648;2022-08-06T15:31:15;4.07;;;1.38;;
25073;SDS011;13066;52.042;5.648;2022-08-06T15:33:47;0.98;;;0.80;;
25073;SDS011;13066;52.042;5.648;2022-08-06T15:36:15;1.58;;;0.60;;
25073;SDS011;13066;52.042;5.648;2022-08-06T15:38:44;0.82;;;0.80;;
25073;SDS011;13066;52.042;5.648;2022-08-06T15:41:13;1.20;;;1.00;;
25073;SDS011;13066;52.042;5.648;2022-08-06T15:43:42;1.67;;;1.00;;
25073;SDS011;13066;52.042;5.648;2022-08-06T15:46:17;1.10;;;0.70;;
25073;SDS011;13066;52.042;5.648;2022-08-06T15:48:56;3.00;;;1.10;;
25073;SDS011;13066;52.042;5.648;2022-08-06T15:53:58;1.73;;;0.98;;
25073;SDS011;13066;52.042;5.648;2022-08-06T15:56:26;2.65;;;0.90;;
25073;SDS011;13066;52.042;5.648;2022-08-06T15:59:00;2.15;;;1.10;;
25073;SDS011;13066;52.042;5.648;2022-08-06T16:01:37;1.92;;;0.77;;
25073;SDS011;13066;52.042;5.648;2022-08-06T16:04:27;1.92;;;1.00;;
25073;SDS011;13066;52.042;5.648;2022-08-06T16:07:02;2.08;;;0.88;;
25073;SDS011;13066;52.042;5.648;2022-08-06T16:09:31;6.57;;;1.10;;
25073;SDS011;13066;52.042;5.648;2022-08-06T16:12:19;1.40;;;0.90;;
25073;SDS011;13066;52.042;5.648;2022-08-06T16:14:48;4.68;;;1.92;;
25073;SDS011;13066;52.042;5.648;2022-08-06T16:17:24;1.10;;;1.00;;
25073;SDS011;13066;52.042;5.648;2022-08-06T16:20:14;3.45;;;1.10;;
25073;SDS011;13066;52.042;5.648;2022-08-06T16:22:48;3.17;;;1.08;;